createdAt,value
2019-03-20T14:42:16.716Z,40.69
2019-03-20T14:43:29.016Z,40.69
2019-03-20T14:44:27.762Z,39.25
2019-03-20T14:44:51.765Z,38.68
2019-03-20T14:45:50.365Z,38.20
2019-03-20T14:46:50.225Z,37.82
2019-03-20T14:47:50.144Z,39.15
2019-03-20T14:48:50.059Z,40.01
2019-03-20T14:49:49.988Z,40.40
2019-03-20T14:50:49.969Z,38.96
2019-03-20T14:51:49.854Z,39.25
2019-03-20T14:52:49.812Z,38.76
2019-03-20T14:53:49.680Z,39.61
2019-03-20T14:54:49.652Z,40.19
2019-03-20T14:55:49.521Z,39.15
2019-03-20T14:56:49.445Z,39.35
2019-03-20T14:57:49.371Z,40.97
2019-03-20T14:58:49.344Z,41.45
2019-03-20T14:59:49.281Z,41.74
2019-03-20T15:00:49.207Z,42.88
2019-03-20T15:01:49.073Z,42.43
2019-03-20T15:02:49.000Z,40.52
2019-03-20T15:03:48.935Z,39.56
2019-03-20T15:04:48.838Z,39.08
2019-03-20T15:05:48.773Z,39.08
2019-03-20T15:06:48.694Z,39.39
2019-03-20T15:07:48.618Z,39.29
2019-03-20T15:08:48.533Z,39.67
2019-03-20T15:09:48.472Z,39.67
2019-03-20T15:10:48.455Z,40.25
2019-03-20T15:11:48.319Z,40.15
2019-03-20T15:12:48.238Z,39.29
2019-03-20T15:13:48.281Z,39.20
2019-03-20T15:14:48.085Z,39.48
2019-03-20T15:15:48.061Z,39.86
2019-03-20T15:16:47.937Z,40.15
2019-03-20T15:17:47.855Z,40.06
2019-03-20T15:18:47.783Z,39.48
2019-03-20T15:19:47.709Z,39.29
2019-03-20T15:20:47.634Z,39.58
2019-03-20T15:21:47.560Z,39.29
2019-03-20T15:22:47.481Z,39.20
2019-03-20T15:23:47.404Z,38.71
2019-03-20T15:24:47.375Z,37.28
2019-03-20T15:25:47.269Z,36.61
2019-03-20T15:26:47.182Z,37.76
2019-03-20T15:27:47.101Z,38.34
2019-03-20T15:28:47.028Z,38.71
2019-03-20T15:29:46.948Z,39.29
2019-03-20T15:30:46.875Z,39.10
2019-03-20T15:31:46.795Z,38.34
2019-03-20T15:32:46.720Z,37.55
2019-03-20T15:33:46.708Z,38.70
2019-03-20T15:34:46.622Z,39.56
2019-03-20T15:35:46.494Z,41.09
2019-03-20T15:36:46.415Z,40.61
2019-03-20T15:37:46.342Z,38.51
2019-03-20T15:38:46.344Z,37.65
2019-03-20T15:39:46.268Z,37.73
2019-03-20T15:40:55.711Z,37.34
2019-03-20T15:41:46.109Z,37.24
2019-03-20T15:42:45.979Z,38.68
2019-03-20T15:43:45.886Z,38.68
2019-03-20T15:44:45.831Z,38.87
2019-03-20T15:45:45.781Z,38.78
2019-03-20T15:46:45.671Z,38.78
2019-03-20T15:47:45.600Z,38.10
2019-03-20T15:48:45.548Z,37.53
2019-03-20T15:49:45.440Z,37.82
2019-03-20T15:50:45.362Z,37.63
2019-03-20T15:51:45.287Z,37.53
2019-03-20T15:52:45.264Z,37.73
2019-03-20T15:53:45.242Z,38.30
2019-03-20T15:54:45.068Z,39.25
2019-03-20T15:55:44.984Z,38.85
2019-03-20T15:56:44.966Z,38.95
2019-03-20T15:57:44.980Z,38.66
2019-03-20T15:58:44.757Z,38.66
2019-03-20T15:59:44.669Z,38.56
2019-03-20T16:00:44.659Z,39.81
2019-03-20T16:01:44.643Z,40.95
2019-03-20T16:02:44.493Z,40.19
2019-03-20T16:03:44.370Z,39.90
2019-03-20T16:04:44.309Z,41.24
2019-03-20T16:05:44.383Z,41.16
2019-03-20T16:06:44.138Z,42.60
2019-03-20T16:07:44.103Z,43.46
2019-03-20T16:08:43.991Z,44.31
2019-03-20T16:09:43.936Z,46.61
2019-03-20T16:10:43.839Z,48.13
2019-03-20T16:11:43.761Z,44.41
2019-03-20T16:12:43.695Z,41.45
2019-03-20T16:13:43.608Z,41.35
2019-03-20T16:14:43.536Z,39.92
2019-03-20T16:15:43.568Z,40.59
2019-03-20T16:16:43.402Z,41.45
2019-03-20T16:17:43.373Z,42.69
2019-03-20T16:18:43.348Z,41.74
2019-03-20T16:19:43.151Z,41.35
2019-03-20T16:20:43.118Z,42.57
2019-03-20T16:21:42.998Z,44.98
2019-03-20T16:22:42.947Z,45.34
2019-03-20T16:23:42.902Z,45.63
2019-03-20T16:24:42.776Z,44.67
2019-03-20T16:25:42.709Z,44.20
2019-03-20T16:26:42.694Z,43.62
2019-03-20T16:27:42.685Z,42.48
2019-03-20T16:28:42.531Z,41.62
2019-03-20T16:29:42.457Z,41.33
2019-03-20T16:30:42.453Z,39.88
2019-03-20T16:31:42.413Z,39.50
2019-03-20T16:32:42.234Z,39.50
2019-03-20T16:33:42.138Z,39.59
2019-03-20T16:34:42.020Z,40.57
2019-03-20T16:35:42.027Z,41.22
2019-03-20T16:36:41.854Z,41.43
2019-03-20T16:37:41.848Z,43.60
2019-03-20T16:38:41.765Z,47.03
2019-03-20T16:39:41.729Z,49.80
2019-03-20T16:40:41.625Z,50.76
2019-03-20T16:41:41.485Z,52.48
2019-03-20T16:42:41.555Z,53.50
2019-03-20T16:43:41.385Z,53.59
2019-03-20T16:44:41.309Z,53.88
2019-03-20T16:45:41.227Z,54.26
2019-03-20T16:46:41.254Z,56.24
2019-03-20T16:47:41.016Z,57.28
2019-03-20T16:48:41.047Z,58.14
2019-03-20T16:49:40.870Z,58.24
2019-03-20T16:50:40.892Z,58.52
2019-03-20T16:51:40.755Z,58.69
2019-03-20T16:52:40.656Z,57.92
2019-03-20T16:53:40.568Z,57.92
2019-03-20T16:54:40.489Z,57.26
2019-03-20T16:55:40.473Z,57.35
2019-03-20T16:56:40.378Z,56.97
2019-03-20T16:57:40.244Z,56.49
2019-03-20T16:58:40.320Z,56.30
2019-03-20T16:59:40.155Z,57.73
2019-03-20T17:00:40.019Z,58.69
2019-03-20T17:01:39.942Z,59.54
2019-03-20T17:02:39.864Z,59.61
2019-03-20T17:03:39.848Z,60.08
2019-03-20T17:04:39.746Z,59.80
2019-03-20T17:05:39.686Z,60.56
2019-03-20T17:06:39.557Z,60.85
2019-03-20T17:07:39.492Z,60.66
2019-03-20T17:08:39.396Z,61.13
2019-03-20T17:09:39.320Z,62.18
2019-03-20T17:10:39.268Z,62.72
2019-03-20T17:11:39.214Z,62.62
2019-03-20T17:12:39.177Z,62.81
2019-03-20T17:13:39.010Z,62.53
2019-03-20T17:14:39.005Z,62.62
2019-03-20T17:15:38.917Z,62.72
2019-03-20T17:16:42.611Z,62.81
2019-03-20T17:17:38.691Z,62.30
2019-03-20T17:18:38.620Z,62.78
2019-03-20T17:19:38.540Z,62.88
2019-03-20T17:20:38.561Z,63.35
2019-03-20T17:21:38.444Z,64.11
2019-03-20T17:22:41.966Z,64.78
2019-03-20T17:23:38.227Z,64.78
2019-03-20T17:24:38.171Z,64.87
2019-03-20T17:25:38.083Z,65.16
2019-03-20T17:26:38.004Z,64.69
2019-03-20T17:27:37.913Z,64.87
2019-03-20T17:28:37.844Z,64.78
2019-03-20T17:29:37.765Z,64.87
2019-03-20T17:30:37.677Z,64.97
2019-03-20T17:31:37.673Z,66.02
2019-03-20T17:32:37.587Z,65.64
2019-03-20T17:33:37.493Z,65.92
2019-03-20T17:34:37.370Z,65.70
2019-03-20T17:35:37.366Z,65.70
2019-03-20T17:36:37.212Z,66.08
2019-03-20T17:37:37.196Z,67.13
2019-03-20T17:38:37.066Z,67.79
2019-03-20T17:39:36.973Z,68.17
2019-03-20T17:40:36.897Z,68.99
2019-03-20T17:41:37.009Z,69.46
2019-03-20T17:42:36.835Z,69.18
2019-03-20T17:43:36.724Z,69.66
2019-03-20T17:44:36.833Z,69.46
2019-03-20T19:26:30.902Z,73.94
2019-03-20T19:27:30.011Z,74.41
2019-03-20T19:28:30.522Z,74.79
2019-03-20T19:29:59.695Z,74.60
2019-03-20T19:30:26.095Z,74.41
2019-03-20T19:31:25.934Z,75.07
2019-03-20T19:32:25.835Z,75.26
2019-03-20T19:42:19.395Z,75.98
2019-03-20T19:47:08.180Z,75.51
2019-03-20T19:48:59.067Z,75.98
2019-03-20T19:49:42.021Z,76.27
2019-03-20T19:50:41.987Z,75.79
2019-03-20T19:54:40.601Z,76.55
2019-03-20T20:11:45.359Z,77.27
2019-03-20T20:13:41.695Z,78.13
2019-03-20T20:14:41.539Z,78.31
2019-03-20T20:15:41.565Z,78.88
2019-03-20T22:22:44.961Z,90.44
2019-03-20T22:23:37.889Z,91.01
2019-03-20T22:24:37.813Z,91.10
2019-03-20T22:25:37.953Z,90.34
2019-03-20T22:29:51.783Z,89.40
2019-03-20T22:30:50.248Z,89.31
2019-03-20T22:31:43.955Z,89.59
2019-03-20T22:32:43.421Z,89.78
2019-03-20T23:22:42.250Z,91.15
2019-03-20T23:25:28.742Z,93.70
2019-03-20T23:26:28.558Z,94.27
2019-03-20T23:27:28.674Z,94.84
2019-03-20T23:29:51.950Z,95.69
2019-03-20T23:30:28.045Z,94.65
2019-03-20T23:31:28.097Z,95.21
2019-03-20T23:32:27.895Z,95.12
2019-03-20T23:33:27.853Z,94.46
2019-03-20T23:34:27.717Z,93.70
2019-03-20T23:35:27.705Z,91.34
2019-03-20T23:36:27.617Z,89.36
2019-03-20T23:37:27.421Z,87.84
2019-03-20T23:38:28.663Z,88.03
2019-03-20T23:39:27.325Z,88.79
2019-03-20T23:40:27.201Z,85.95
2019-03-20T23:41:27.179Z,83.64
2019-03-20T23:42:27.124Z,84.30
2019-03-20T23:43:26.976Z,86.19
2019-03-20T23:44:26.956Z,88.27
2019-03-20T23:45:26.769Z,89.69
2019-03-20T23:46:26.732Z,92.05
2019-03-20T23:47:26.591Z,93.56
2019-03-20T23:48:26.593Z,94.60
2019-03-20T23:49:26.424Z,95.64
2019-03-20T23:50:26.355Z,96.30
2019-03-20T23:51:26.330Z,96.40
2019-03-20T23:52:26.267Z,96.40
2019-03-20T23:53:26.253Z,96.59
2019-03-20T23:54:26.087Z,96.83
2019-03-20T23:55:26.073Z,96.30
2019-03-20T23:56:25.903Z,96.45
2019-03-20T23:57:25.862Z,96.35
2019-03-20T23:58:25.791Z,96.16
2019-03-20T23:59:25.685Z,95.12
